Owingsville, Kentucky
Current Conditions -  °F | °C
As of 3:30 AM on Friday 19 Dec 2014 (Local Time) from KSYM Reporting Station
Overcast Overcast  
Wind Chill: 27°   Ceiling: 7000
Heat Index: 27°   Visibility: 10mi
Dew Point: 21°   Wind: 3mph
Humidity: 80%   Direction: 330°NNW
Pressure: 30.24"   Gusts: NA
Location:  38.14°N, 83.76°W
Report Text: KSYM 190830Z AUTO 33003KT 10SM FEW020 OVC070 M03/M06 A3024 RMK AO2
Loading
Personal Weather Stations






























Interactive Weather Map New forecast layout! Learn more

10-Day Weather Forecast

Advertisements
Track Severe Weather on mobile